New Straitsville, Ohio
Current Conditions -  °F | °C
As of 12:53 PM on Sunday 21 Dec 2014 (Local Time) from KLHQ Reporting Station
Few Clouds Few Clouds  
Wind Chill: 51°   Ceiling: Unl
Heat Index: 51°   Visibility: 7mi
Dew Point: 24°   Wind: 6mph
Humidity: 35%   Direction: 140°SE
Pressure: 30.27"   Gusts: NA
Location:  39.58°N, 82.24°W
Report Text: KLHQ 211753Z AUTO 14005KT 7SM FEW023 11/M04 A3027 RMK AO2 SLP252 T01061044 10117 20006 58023
Loading
Personal Weather Stations






























Interactive Weather Map New forecast layout! Learn more

10-Day Weather Forecast

Advertisements
Track Severe Weather on mobile